Time;durP1;ratioP1;P1;durP2;ratioP2;P2;SDS_P1;SDS_P2;PMS_P1;PMS_P2;Temp;Humidity;BMP_temperature;BMP_pressure;BME280_temperature;BME280_humidity;BME280_pressure;Samples;Min_cycle;Max_cycle;Signal;HPM_P1;HPM_P2
2023/09/07 00:01:19;;;;;;;14.35;9.30;;;18.20;99.90;;;;;;5025148;28;20091;-54
2023/09/07 00:03:45;;;;;;;13.32;8.50;;;18.10;99.90;;;;;;5024466;28;20041;-54
2023/09/07 00:06:11;;;;;;;14.23;8.63;;;18.00;99.90;;;;;;5033341;28;20482;-53
2023/09/07 00:08:36;;;;;;;14.13;9.13;;;18.00;99.90;;;;;;5033669;28;20384;-52
2023/09/07 00:11:06;;;;;;;13.25;8.82;;;17.90;99.90;;;;;;5032299;28;20437;-53
2023/09/07 00:13:32;;;;;;;14.80;9.63;;;18.00;99.90;;;;;;5032952;28;20037;-53
2023/09/07 00:16:02;;;;;;;14.55;9.48;;;18.00;99.90;;;;;;5031585;28;20455;-53
2023/09/07 00:18:28;;;;;;;14.23;9.32;;;17.90;99.90;;;;;;5022690;28;20373;-54
2023/09/07 00:20:54;;;;;;;15.77;9.25;;;18.00;99.90;;;;;;5032379;28;20123;-53
2023/09/07 00:23:20;;;;;;;14.93;9.07;;;17.90;99.90;;;;;;5032490;28;20120;-53
2023/09/07 00:25:46;;;;;;;14.07;8.25;;;17.80;99.90;;;;;;5029777;28;20333;-53
2023/09/07 00:28:12;;;;;;;12.52;9.02;;;17.70;99.90;;;;;;5030817;28;20038;-53
2023/09/07 00:30:38;;;;;;;15.88;9.13;;;17.70;99.90;;;;;;5028611;28;20302;-53
2023/09/07 00:33:03;;;;;;;13.52;8.68;;;17.80;99.90;;;;;;5037781;28;20029;-54
2023/09/07 00:35:29;;;;;;;16.05;8.27;;;17.70;99.90;;;;;;5034474;28;20034;-54
2023/09/07 00:37:55;;;;;;;15.77;8.75;;;17.70;99.90;;;;;;5035414;28;20045;-53
2023/09/07 00:40:21;;;;;;;14.38;8.15;;;17.70;99.90;;;;;;5030653;28;20033;-53
2023/09/07 00:42:47;;;;;;;13.95;8.55;;;17.70;99.90;;;;;;5032041;28;20045;-53
2023/09/07 00:45:13;;;;;;;12.70;8.02;;;17.70;99.90;;;;;;5032343;28;20032;-54
2023/09/07 00:47:39;;;;;;;12.80;8.35;;;17.70;99.90;;;;;;5030099;28;20590;-53
2023/09/07 00:50:06;;;;;;;12.35;7.78;;;17.60;99.90;;;;;;5034160;28;20040;-53
2023/09/07 00:52:33;;;;;;;12.45;8.50;;;17.60;99.90;;;;;;5027222;28;20172;-52
2023/09/07 00:55:01;;;;;;;11.95;8.02;;;17.70;99.90;;;;;;5027072;28;20112;-54
2023/09/07 00:57:26;;;;;;;11.60;7.72;;;17.60;99.90;;;;;;5029546;28;20103;-54
2023/09/07 00:59:52;;;;;;;11.65;7.80;;;17.50;99.90;;;;;;5034188;28;20033;-54
2023/09/07 01:02:18;;;;;;;11.75;7.63;;;17.40;99.90;;;;;;5030193;28;20059;-53
2023/09/07 01:04:43;;;;;;;10.77;7.97;;;17.30;99.90;;;;;;5035290;28;20048;-53
2023/09/07 01:07:14;;;;;;;12.75;8.05;;;17.40;99.90;;;;;;5030473;28;20477;-53
2023/09/07 01:09:41;;;;;;;12.40;7.85;;;17.40;99.90;;;;;;5035061;28;20503;-55
2023/09/07 01:12:10;;;;;;;10.88;7.85;;;17.30;99.90;;;;;;5030251;28;20044;-53
2023/09/07 01:14:36;;;;;;;12.95;8.20;;;17.40;99.90;;;;;;5015295;28;20083;-53
2023/09/07 01:17:03;;;;;;;14.95;8.30;;;17.30;99.90;;;;;;5018207;28;20033;-52
2023/09/07 01:19:29;;;;;;;15.65;8.82;;;17.30;99.90;;;;;;5012203;28;20477;-53
2023/09/07 01:21:55;;;;;;;12.98;7.72;;;17.30;99.90;;;;;;5020128;28;20048;-53
2023/09/07 01:24:22;;;;;;;11.77;8.20;;;17.20;99.90;;;;;;5018102;28;20480;-53
2023/09/07 01:26:49;;;;;;;12.57;8.75;;;17.30;99.90;;;;;;5015537;28;20037;-54
2023/09/07 01:29:16;;;;;;;10.90;7.75;;;17.20;99.90;;;;;;5017828;28;20042;-52
2023/09/07 01:31:42;;;;;;;13.68;8.50;;;17.20;99.90;;;;;;5018346;28;20034;-53
2023/09/07 01:34:08;;;;;;;13.25;7.72;;;17.10;99.90;;;;;;5015641;28;20034;-54
2023/09/07 01:36:34;;;;;;;12.63;8.10;;;17.10;99.90;;;;;;5013203;28;20087;-52
2023/09/07 01:39:00;;;;;;;13.32;8.48;;;17.00;99.90;;;;;;5038599;28;20576;-54
2023/09/07 01:41:26;;;;;;;13.43;8.27;;;17.00;99.90;;;;;;5014759;28;20132;-53
2023/09/07 01:43:52;;;;;;;11.13;7.72;;;17.00;99.90;;;;;;5016618;28;20149;-53
2023/09/07 01:46:18;;;;;;;13.98;7.80;;;17.00;99.90;;;;;;5025352;28;20513;-54
2023/09/07 01:48:43;;;;;;;14.95;7.72;;;17.00;99.90;;;;;;5033143;28;20473;-54
2023/09/07 01:51:09;;;;;;;12.00;7.55;;;17.10;99.90;;;;;;5030484;28;20037;-53
2023/09/07 01:53:34;;;;;;;11.25;8.55;;;17.00;99.90;;;;;;5032255;28;20034;-54
2023/09/07 01:56:00;;;;;;;13.68;8.68;;;17.00;99.90;;;;;;5030602;28;20361;-54
2023/09/07 01:58:26;;;;;;;15.70;8.77;;;17.00;99.90;;;;;;5028712;28;20048;-53
2023/09/07 02:00:58;;;;;;;11.75;7.78;;;17.10;99.90;;;;;;5034263;28;20095;-53
2023/09/07 02:03:23;;;;;;;12.32;7.80;;;17.00;99.90;;;;;;5035865;28;20037;-54
2023/09/07 02:05:49;;;;;;;9.27;7.25;;;17.10;99.90;;;;;;5034709;28;20091;-52
2023/09/07 02:08:14;;;;;;;14.00;7.90;;;17.00;99.90;;;;;;5034015;28;20431;-54
2023/09/07 02:10:40;;;;;;;14.70;6.80;;;17.00;99.90;;;;;;5040086;28;20127;-53
2023/09/07 02:13:06;;;;;;;9.32;6.53;;;16.90;99.90;;;;;;5037704;28;20143;-54
2023/09/07 02:15:31;;;;;;;13.00;7.22;;;16.90;99.90;;;;;;5035765;28;20037;-53
2023/09/07 02:17:57;;;;;;;8.80;6.72;;;16.80;99.90;;;;;;5039334;28;20032;-54
2023/09/07 02:20:22;;;;;;;11.85;6.35;;;16.80;99.90;;;;;;5034961;28;20049;-54
2023/09/07 02:22:48;;;;;;;10.10;6.65;;;16.70;99.90;;;;;;5026063;28;20033;-53
2023/09/07 02:25:14;;;;;;;8.88;6.47;;;16.70;99.90;;;;;;5032108;28;20657;-54
2023/09/07 02:27:40;;;;;;;15.55;6.95;;;16.80;99.90;;;;;;5031489;28;20033;-53
2023/09/07 02:30:06;;;;;;;12.40;6.65;;;16.70;99.90;;;;;;5065327;28;20392;-54
2023/09/07 02:32:32;;;;;;;9.70;6.90;;;16.70;99.90;;;;;;5036045;28;20526;-53
2023/09/07 02:34:57;;;;;;;11.25;7.03;;;16.70;99.90;;;;;;5035860;28;20063;-54
2023/09/07 02:37:23;;;;;;;10.57;6.78;;;16.60;99.90;;;;;;5031359;28;20046;-52
2023/09/07 02:39:49;;;;;;;10.90;7.20;;;16.50;99.90;;;;;;5037987;28;20381;-54
2023/09/07 02:42:14;;;;;;;9.07;6.90;;;16.60;99.90;;;;;;5038050;28;20052;-53
2023/09/07 02:44:40;;;;;;;11.13;7.22;;;16.60;99.90;;;;;;5032442;28;20513;-53
2023/09/07 02:47:05;;;;;;;10.60;6.80;;;16.50;99.90;;;;;;5031658;28;20040;-54
2023/09/07 02:49:31;;;;;;;11.25;6.88;;;16.50;99.90;;;;;;5036549;28;20471;-53
2023/09/07 02:51:57;;;;;;;11.50;6.85;;;16.50;99.90;;;;;;5041762;28;20091;-54
2023/09/07 02:54:23;;;;;;;9.05;6.95;;;16.50;99.90;;;;;;5031626;28;20497;-54
2023/09/07 02:56:49;;;;;;;14.55;8.15;;;16.50;99.90;;;;;;5034997;28;20040;-55
2023/09/07 02:59:14;;;;;;;11.45;7.32;;;16.50;99.90;;;;;;5031251;28;20428;-53
2023/09/07 03:01:40;;;;;;;12.30;7.60;;;16.40;99.90;;;;;;5040502;28;20037;-54
2023/09/07 03:04:07;;;;;;;12.00;7.45;;;16.50;99.90;;;;;;5032841;28;20060;-53
2023/09/07 03:06:33;;;;;;;11.90;7.38;;;16.40;99.90;;;;;;5034157;28;20062;-52
2023/09/07 03:08:58;;;;;;;15.63;7.38;;;16.40;99.90;;;;;;5042001;28;20650;-52
2023/09/07 03:11:24;;;;;;;9.73;7.15;;;16.50;99.90;;;;;;5039092;28;20036;-54
2023/09/07 03:13:49;;;;;;;11.80;7.03;;;16.50;99.90;;;;;;5034503;28;20061;-53
2023/09/07 03:16:15;;;;;;;11.98;6.80;;;16.40;99.90;;;;;;5034519;28;20025;-55
2023/09/07 03:18:41;;;;;;;11.68;6.38;;;16.40;99.90;;;;;;5033125;28;20048;-53
2023/09/07 03:21:06;;;;;;;11.63;6.25;;;16.20;99.90;;;;;;5034111;28;20064;-52
2023/09/07 03:23:33;;;;;;;10.05;6.57;;;16.10;99.90;;;;;;5034552;28;20652;-54
2023/09/07 03:25:59;;;;;;;12.63;6.90;;;16.20;99.90;;;;;;5039903;28;20066;-54
2023/09/07 03:28:25;;;;;;;13.00;7.15;;;16.10;99.90;;;;;;5036524;28;20111;-55
2023/09/07 03:30:53;;;;;;;11.18;6.80;;;16.10;99.90;;;;;;5031139;28;20710;-55
2023/09/07 03:33:19;;;;;;;13.45;7.40;;;16.10;99.90;;;;;;5037042;28;20091;-54
2023/09/07 03:35:44;;;;;;;14.13;7.20;;;16.10;99.90;;;;;;5038390;28;20041;-55
2023/09/07 03:38:10;;;;;;;10.35;6.88;;;16.30;99.90;;;;;;5037292;28;20411;-53
2023/09/07 03:40:36;;;;;;;14.88;7.40;;;16.20;99.90;;;;;;5032617;28;20110;-53
2023/09/07 03:43:02;;;;;;;12.57;7.00;;;16.30;99.90;;;;;;5035505;28;20570;-54
2023/09/07 03:45:27;;;;;;;12.70;7.10;;;16.00;99.90;;;;;;5031835;28;20037;-52
2023/09/07 03:47:53;;;;;;;14.73;7.63;;;16.10;99.90;;;;;;5037202;28;20423;-53
2023/09/07 03:50:18;;;;;;;12.63;6.80;;;16.00;99.90;;;;;;5031883;28;20463;-55
2023/09/07 03:52:44;;;;;;;11.77;6.78;;;16.00;99.90;;;;;;5030316;28;20036;-54
2023/09/07 03:55:10;;;;;;;10.45;6.70;;;15.90;99.90;;;;;;5029151;28;20028;-53
2023/09/07 03:57:36;;;;;;;11.70;6.90;;;15.90;99.90;;;;;;5029337;28;20124;-54
2023/09/07 04:00:07;;;;;;;10.70;7.28;;;15.90;99.90;;;;;;5023701;28;20029;-54
2023/09/07 04:02:33;;;;;;;9.32;7.25;;;15.80;99.90;;;;;;5030155;28;20041;-54
2023/09/07 04:05:01;;;;;;;11.80;7.28;;;15.80;99.90;;;;;;5014698;28;20168;-54
2023/09/07 04:07:27;;;;;;;15.13;7.05;;;15.80;99.90;;;;;;5028829;28;20563;-55
2023/09/07 04:09:52;;;;;;;12.38;7.50;;;15.80;99.90;;;;;;5030189;28;20032;-54
2023/09/07 04:12:18;;;;;;;14.18;7.30;;;15.80;99.90;;;;;;5027057;28;20060;-53
2023/09/07 04:14:44;;;;;;;10.93;7.25;;;15.90;99.90;;;;;;5025779;28;20079;-54
2023/09/07 04:17:10;;;;;;;12.43;7.53;;;15.90;99.90;;;;;;5030227;28;20730;-55
2023/09/07 04:19:36;;;;;;;12.10;7.03;;;15.90;99.90;;;;;;5024266;28;20041;-54
2023/09/07 04:22:01;;;;;;;11.68;7.13;;;15.80;99.90;;;;;;5021414;28;20049;-54
2023/09/07 04:24:27;;;;;;;11.93;7.20;;;15.90;99.90;;;;;;5026476;28;20037;-55
2023/09/07 04:26:53;;;;;;;12.20;7.00;;;16.00;99.90;;;;;;5033119;28;20048;-53
2023/09/07 04:29:19;;;;;;;10.23;7.25;;;15.90;99.90;;;;;;5016222;28;20037;-55
2023/09/07 04:31:44;;;;;;;11.00;7.25;;;15.90;99.90;;;;;;5034638;28;20148;-54
2023/09/07 04:34:10;;;;;;;11.02;7.60;;;15.90;99.90;;;;;;5030360;28;20037;-54
2023/09/07 04:36:35;;;;;;;13.70;7.18;;;15.90;99.90;;;;;;5027062;28;20037;-54
2023/09/07 04:39:03;;;;;;;10.77;6.18;;;15.70;99.90;;;;;;5032860;28;20098;-54
2023/09/07 04:41:29;;;;;;;12.43;6.30;;;15.70;99.90;;;;;;5036081;28;20048;-53
2023/09/07 04:43:54;;;;;;;12.90;6.43;;;15.60;99.90;;;;;;5031459;28;20129;-52
2023/09/07 04:46:22;;;;;;;10.18;6.00;;;15.50;99.90;;;;;;5035602;28;20507;-56
2023/09/07 04:48:47;;;;;;;8.77;6.57;;;15.60;99.90;;;;;;5026093;28;20114;-53
2023/09/07 04:51:13;;;;;;;14.55;6.97;;;15.60;99.90;;;;;;5028811;28;20033;-52
2023/09/07 04:53:39;;;;;;;12.25;7.03;;;15.50;99.90;;;;;;5029992;28;20041;-54
2023/09/07 04:56:07;;;;;;;12.32;6.63;;;15.50;99.90;;;;;;5028457;28;20041;-53
2023/09/07 04:58:33;;;;;;;11.30;7.07;;;15.50;99.90;;;;;;5023991;28;20494;-54
2023/09/07 05:01:10;;;;;;;14.27;7.35;;;15.50;99.90;;;;;;5034057;28;20067;-53
2023/09/07 05:03:36;;;;;;;10.73;6.90;;;15.50;99.90;;;;;;5029895;28;20652;-53
2023/09/07 05:06:03;;;;;;;12.57;6.68;;;15.50;99.90;;;;;;5030360;28;20049;-53
2023/09/07 05:08:29;;;;;;;19.92;11.75;;;15.40;99.90;;;;;;5023210;28;20029;-52
2023/09/07 05:11:00;;;;;;;17.95;11.15;;;15.50;99.90;;;;;;5033344;28;20460;-52
2023/09/07 05:13:26;;;;;;;17.25;10.52;;;15.40;99.90;;;;;;5021148;28;20082;-52
2023/09/07 05:15:53;;;;;;;12.82;8.45;;;15.30;99.90;;;;;;5029711;28;20033;-53
2023/09/07 05:18:19;;;;;;;11.50;7.65;;;15.40;99.90;;;;;;5028347;28;20077;-52
2023/09/07 05:20:45;;;;;;;13.52;7.35;;;15.40;99.90;;;;;;5027170;28;20471;-52
2023/09/07 05:23:17;;;;;;;13.50;7.90;;;15.30;99.90;;;;;;5023505;28;20025;-53
2023/09/07 05:25:52;;;;;;;15.70;7.72;;;15.40;99.90;;;;;;5022447;28;20139;-53
2023/09/07 05:28:18;;;;;;;10.45;7.03;;;15.50;99.90;;;;;;5023496;28;20487;-53
2023/09/07 05:30:44;;;;;;;12.02;7.68;;;15.40;99.90;;;;;;5019574;28;20478;-52
2023/09/07 05:33:10;;;;;;;13.73;7.65;;;15.40;99.90;;;;;;5036644;28;20029;-52
2023/09/07 05:35:37;;;;;;;13.35;7.50;;;15.50;99.90;;;;;;5014664;28;20041;-53
2023/09/07 05:38:04;;;;;;;12.75;7.13;;;15.50;99.90;;;;;;5030958;28;20128;-51
2023/09/07 05:40:29;;;;;;;12.40;7.68;;;15.40;99.90;;;;;;5029104;28;20242;-53
2023/09/07 05:42:55;;;;;;;11.25;7.82;;;15.60;99.90;;;;;;5032968;28;20125;-53
2023/09/07 05:45:21;;;;;;;15.18;7.30;;;15.60;99.90;;;;;;5027134;28;20400;-53
2023/09/07 05:47:46;;;;;;;11.68;7.03;;;15.60;99.90;;;;;;5025198;28;20560;-53
2023/09/07 05:50:12;;;;;;;15.25;9.00;;;15.60;99.90;;;;;;5007099;28;20037;-54
2023/09/07 05:52:37;;;;;;;11.73;7.38;;;15.70;99.90;;;;;;5021168;28;20103;-52
2023/09/07 05:55:03;;;;;;;15.68;7.57;;;15.70;99.90;;;;;;5027633;28;20049;-53
2023/09/07 05:57:29;;;;;;;11.70;6.82;;;15.80;99.90;;;;;;5028407;28;20044;-55
2023/09/07 05:59:55;;;;;;;9.05;6.75;;;15.80;99.90;;;;;;5020725;28;20045;-55
2023/09/07 06:02:20;;;;;;;11.05;6.55;;;16.00;99.90;;;;;;5030246;28;20052;-53
2023/09/07 06:04:46;;;;;;;11.65;6.70;;;16.10;99.90;;;;;;5036826;28;20424;-55
2023/09/07 06:07:11;;;;;;;12.00;6.50;;;16.10;99.90;;;;;;5025281;28;20036;-56
2023/09/07 06:09:37;;;;;;;12.30;7.20;;;16.10;99.90;;;;;;5036215;28;20033;-55
2023/09/07 06:12:03;;;;;;;9.82;7.20;;;16.20;99.90;;;;;;5036306;28;20308;-55
2023/09/07 06:14:28;;;;;;;11.82;8.20;;;16.20;99.90;;;;;;5034691;28;20496;-54
2023/09/07 06:16:54;;;;;;;16.00;9.02;;;16.40;99.90;;;;;;5029009;28;20360;-55
2023/09/07 06:19:20;;;;;;;16.58;9.43;;;16.70;99.90;;;;;;5025523;28;20033;-56
2023/09/07 06:21:45;;;;;;;14.57;8.57;;;16.90;99.90;;;;;;5021010;28;20045;-55
2023/09/07 06:24:11;;;;;;;14.82;8.68;;;16.80;99.90;;;;;;5025535;28;20084;-55
2023/09/07 06:26:36;;;;;;;23.75;9.73;;;16.80;99.90;;;;;;5060936;28;20083;-55
2023/09/07 06:29:02;;;;;;;15.07;9.32;;;16.80;99.90;;;;;;5023976;28;20033;-55
2023/09/07 06:31:28;;;;;;;19.58;9.32;;;17.00;99.90;;;;;;5026874;28;20529;-54
2023/09/07 06:33:54;;;;;;;19.33;9.38;;;17.00;99.90;;;;;;5029450;28;20103;-54
2023/09/07 06:36:20;;;;;;;18.23;10.80;;;17.10;99.90;;;;;;5028551;28;20038;-54
2023/09/07 06:38:45;;;;;;;23.02;12.73;;;17.30;99.90;;;;;;5025725;28;20037;-55
2023/09/07 06:41:12;;;;;;;27.20;13.48;;;17.60;99.90;;;;;;5034484;28;20037;-56
2023/09/07 06:43:37;;;;;;;25.50;12.50;;;17.80;99.90;;;;;;5031580;28;20030;-55
2023/09/07 06:46:07;;;;;;;20.65;12.15;;;18.10;99.90;;;;;;5032440;28;20435;-54
2023/09/07 06:48:33;;;;;;;21.52;11.85;;;18.10;99.90;;;;;;5029489;28;20036;-56
2023/09/07 06:51:06;;;;;;;18.60;10.43;;;18.10;99.90;;;;;;5029632;28;20873;-55
2023/09/07 06:53:32;;;;;;;22.35;12.75;;;18.10;99.90;;;;;;5025989;28;20029;-54
2023/09/07 06:56:02;;;;;;;23.73;12.48;;;18.30;99.90;;;;;;5030550;28;20053;-55
2023/09/07 06:58:28;;;;;;;18.58;11.68;;;18.30;99.90;;;;;;5033900;28;20048;-55
2023/09/07 07:01:00;;;;;;;22.83;12.13;;;18.30;99.90;;;;;;5035900;28;20037;-55
2023/09/07 07:03:30;;;;;;;21.77;12.43;;;18.50;99.90;;;;;;5028372;28;20033;-56
2023/09/07 07:05:56;;;;;;;20.63;12.00;;;18.60;99.90;;;;;;5033988;28;20033;-54
2023/09/07 07:08:22;;;;;;;17.92;11.35;;;18.80;99.90;;;;;;5028384;28;20092;-56
2023/09/07 07:10:48;;;;;;;25.90;11.88;;;18.90;99.90;;;;;;5034169;28;20034;-56
2023/09/07 07:13:14;;;;;;;18.73;11.00;;;19.20;99.90;;;;;;5030057;28;20056;-55
2023/09/07 07:15:40;;;;;;;23.35;11.13;;;19.10;99.90;;;;;;5030584;28;20049;-53
2023/09/07 07:18:08;;;;;;;19.48;10.75;;;19.30;99.90;;;;;;5031293;28;20037;-55
2023/09/07 07:20:44;;;;;;;17.05;10.88;;;19.20;99.90;;;;;;5031706;28;20041;-55
2023/09/07 07:23:10;;;;;;;25.63;11.07;;;19.40;99.90;;;;;;5026077;28;20770;-55
2023/09/07 07:25:36;;;;;;;20.95;10.50;;;19.40;99.90;;;;;;5063013;28;20033;-55
2023/09/07 07:28:05;;;;;;;18.05;10.85;;;19.40;99.90;;;;;;5035728;28;20132;-55
2023/09/07 07:30:32;;;;;;;21.25;10.55;;;19.50;99.90;;;;;;5031410;28;20040;-55
2023/09/07 07:32:57;;;;;;;19.38;11.30;;;19.60;99.90;;;;;;5024266;28;20117;-54
2023/09/07 07:35:23;;;;;;;16.55;11.23;;;19.60;99.90;;;;;;5035338;28;20499;-54
2023/09/07 07:37:50;;;;;;;20.90;12.18;;;19.70;99.90;;;;;;5029336;28;20025;-54
2023/09/07 07:40:15;;;;;;;23.65;10.90;;;19.80;99.90;;;;;;5029395;28;20535;-55
2023/09/07 07:42:41;;;;;;;24.77;11.48;;;19.90;99.90;;;;;;5036270;28;20052;-55
2023/09/07 07:45:08;;;;;;;25.98;12.25;;;20.00;99.90;;;;;;5030507;28;20028;-54
2023/09/07 07:47:33;;;;;;;19.20;11.15;;;20.00;99.90;;;;;;5031129;28;20041;-55
2023/09/07 07:49:59;;;;;;;23.50;11.68;;;20.10;99.90;;;;;;5026843;28;20047;-55
2023/09/07 07:52:24;;;;;;;60.15;38.00;;;20.20;99.90;;;;;;5012733;28;20036;-54
2023/09/07 07:54:50;;;;;;;30.58;14.73;;;20.30;99.90;;;;;;5027285;28;20116;-55
2023/09/07 07:57:15;;;;;;;22.95;11.18;;;20.40;99.90;;;;;;5026033;28;20038;-55
2023/09/07 07:59:41;;;;;;;24.70;10.48;;;20.50;99.90;;;;;;5025895;28;20037;-54
2023/09/07 08:02:07;;;;;;;18.67;8.85;;;20.50;99.90;;;;;;5021805;28;20461;-54
2023/09/07 08:04:33;;;;;;;17.63;8.43;;;20.60;99.90;;;;;;5032809;28;20503;-54
2023/09/07 08:07:03;;;;;;;17.15;8.38;;;20.70;99.90;;;;;;5031511;28;20042;-54
2023/09/07 08:09:29;;;;;;;14.95;8.20;;;20.80;99.90;;;;;;5030318;28;20055;-54
2023/09/07 08:11:55;;;;;;;14.48;7.57;;;20.80;99.90;;;;;;5032853;28;20687;-55
2023/09/07 08:14:22;;;;;;;14.85;7.32;;;21.00;99.90;;;;;;5025015;28;22857;-55
2023/09/07 08:16:47;;;;;;;14.80;7.65;;;21.00;99.90;;;;;;5031875;28;20045;-55
2023/09/07 08:19:14;;;;;;;15.77;7.07;;;21.20;99.90;;;;;;5028302;28;20037;-55
2023/09/07 08:21:41;;;;;;;11.93;6.97;;;21.20;99.90;;;;;;5029082;28;20037;-54
2023/09/07 08:24:07;;;;;;;14.52;7.13;;;21.40;99.90;;;;;;5033945;28;20045;-53
2023/09/07 08:26:33;;;;;;;15.05;6.97;;;21.50;99.90;;;;;;5037097;28;20057;-53
2023/09/07 08:28:59;;;;;;;14.95;7.72;;;21.50;99.90;;;;;;5033586;28;20122;-55
2023/09/07 08:31:24;;;;;;;16.05;7.40;;;21.70;99.90;;;;;;5032926;28;20033;-55
2023/09/07 08:33:54;;;;;;;12.07;7.78;;;21.70;99.90;;;;;;5031116;28;20316;-53
2023/09/07 08:36:22;;;;;;;17.88;7.10;;;21.90;99.90;;;;;;5029211;28;20116;-53
2023/09/07 08:38:48;;;;;;;14.70;7.30;;;21.90;99.90;;;;;;5031163;28;20128;-56
2023/09/07 08:41:14;;;;;;;15.65;6.80;;;22.00;99.90;;;;;;5037665;28;20057;-54
2023/09/07 08:43:48;;;;;;;12.43;6.90;;;22.10;99.90;;;;;;5031094;28;20040;-54
2023/09/07 08:46:17;;;;;;;16.33;7.25;;;22.10;99.90;;;;;;5024719;28;20052;-54
2023/09/07 08:48:44;;;;;;;13.65;6.45;;;22.30;99.90;;;;;;5031660;28;20134;-55
2023/09/07 08:51:13;;;;;;;13.20;6.72;;;22.30;99.90;;;;;;5033949;28;20051;-54
2023/09/07 08:53:40;;;;;;;14.45;7.00;;;22.40;99.90;;;;;;5032099;28;20241;-55
2023/09/07 08:56:09;;;;;;;14.15;6.78;;;22.50;99.90;;;;;;5035345;28;20041;-54
2023/09/07 08:58:40;;;;;;;13.55;7.10;;;22.60;99.90;;;;;;5027181;28;20043;-54
2023/09/07 09:01:06;;;;;;;14.98;7.30;;;22.60;99.90;;;;;;5031362;28;20033;-54
2023/09/07 09:03:31;;;;;;;19.08;7.35;;;22.80;99.90;;;;;;5035522;28;20055;-55
2023/09/07 09:05:57;;;;;;;13.50;6.63;;;22.80;99.90;;;;;;5028191;28;20046;-55
2023/09/07 09:08:24;;;;;;;10.57;6.60;;;22.90;99.90;;;;;;5024028;28;20034;-54
2023/09/07 09:11:03;;;;;;;13.23;7.25;;;23.00;99.90;;;;;;5026819;28;20700;-55
2023/09/07 09:13:31;;;;;;;15.60;7.28;;;23.10;99.90;;;;;;5022562;28;20689;-55
2023/09/07 09:16:00;;;;;;;13.75;7.07;;;23.10;99.90;;;;;;5023746;28;20480;-55
2023/09/07 09:18:27;;;;;;;12.88;6.90;;;23.20;99.90;;;;;;5023982;28;20421;-55
2023/09/07 09:20:54;;;;;;;15.70;6.95;;;23.20;99.90;;;;;;5026290;28;20033;-55
2023/09/07 09:23:20;;;;;;;11.82;6.90;;;23.20;99.90;;;;;;5028368;28;20057;-55
2023/09/07 09:25:48;;;;;;;12.68;6.90;;;23.30;99.90;;;;;;5027317;28;20128;-54
2023/09/07 09:28:13;;;;;;;12.13;6.93;;;23.40;99.90;;;;;;5028221;28;20268;-55
2023/09/07 09:30:39;;;;;;;16.45;7.53;;;23.40;99.90;;;;;;5029461;28;20438;-55
2023/09/07 09:33:06;;;;;;;13.63;6.93;;;23.60;99.90;;;;;;5031039;28;20063;-55
2023/09/07 09:35:34;;;;;;;9.27;6.10;;;23.60;99.90;;;;;;5032692;28;20040;-55
2023/09/07 09:38:04;;;;;;;10.25;5.97;;;23.80;99.90;;;;;;5037913;28;20048;-56
2023/09/07 09:40:36;;;;;;;11.80;6.50;;;23.80;99.90;;;;;;5028472;28;20037;-54
2023/09/07 09:43:06;;;;;;;10.13;5.70;;;23.80;99.90;;;;;;5029759;28;20562;-55
2023/09/07 09:45:33;;;;;;;10.40;5.72;;;23.90;99.90;;;;;;5026801;28;20393;-56
2023/09/07 09:48:00;;;;;;;11.25;6.85;;;24.00;99.90;;;;;;5033861;28;20108;-55
2023/09/07 09:50:26;;;;;;;9.35;5.70;;;24.00;99.90;;;;;;5035378;28;20397;-55
2023/09/07 09:52:53;;;;;;;10.95;5.78;;;24.10;99.90;;;;;;5032180;28;20552;-55
2023/09/07 09:55:19;;;;;;;9.93;6.53;;;24.20;99.90;;;;;;5031189;28;20600;-55
2023/09/07 09:57:45;;;;;;;9.68;5.82;;;24.10;99.90;;;;;;5032894;28;20044;-56
2023/09/07 10:02:47;;;;;;;9.35;5.60;;;24.30;99.90;;;;;;5031699;28;20544;-55
2023/09/07 10:05:14;;;;;;;8.57;5.85;;;24.40;99.90;;;;;;5033230;28;20472;-55
2023/09/07 10:07:45;;;;;;;10.80;5.65;;;24.40;99.90;;;;;;5031124;28;20026;-55
2023/09/07 10:10:15;;;;;;;11.93;5.82;;;24.30;99.90;;;;;;5027784;28;20038;-56
2023/09/07 10:12:55;;;;;;;14.43;5.90;;;24.50;99.90;;;;;;5028436;28;20064;-55
2023/09/07 10:15:22;;;;;;;8.85;5.60;;;24.50;99.90;;;;;;5027376;28;20615;-55
2023/09/07 10:17:50;;;;;;;8.05;5.70;;;24.50;99.90;;;;;;5026161;28;20128;-54
2023/09/07 10:20:17;;;;;;;11.60;6.30;;;24.60;99.90;;;;;;5014368;28;20030;-55
2023/09/07 10:22:43;;;;;;;9.18;5.47;;;24.60;99.90;;;;;;5030651;28;20230;-55
2023/09/07 10:25:22;;;;;;;9.32;5.60;;;24.60;99.90;;;;;;5030085;28;20041;-55
2023/09/07 10:27:49;;;;;;;7.50;5.50;;;24.60;99.90;;;;;;5028986;28;20049;-56
2023/09/07 10:30:20;;;;;;;9.80;6.55;;;24.60;99.90;;;;;;5027616;28;20060;-56
2023/09/07 10:32:46;;;;;;;13.13;9.05;;;24.80;99.90;;;;;;5027894;28;20064;-55
2023/09/07 10:35:16;;;;;;;9.98;5.78;;;24.80;99.90;;;;;;5025535;28;20068;-56
2023/09/07 10:37:45;;;;;;;8.93;5.90;;;24.80;99.90;;;;;;5029705;28;20517;-55
2023/09/07 10:40:11;;;;;;;8.25;5.43;;;24.80;99.90;;;;;;5023916;28;20029;-56
2023/09/07 10:42:38;;;;;;;11.73;6.05;;;24.90;99.90;;;;;;5027821;28;20034;-55
2023/09/07 10:45:16;;;;;;;9.00;5.43;;;24.90;99.90;;;;;;5029399;28;20373;-56
2023/09/07 10:47:48;;;;;;;8.63;5.40;;;25.00;99.90;;;;;;5028419;28;20060;-55
2023/09/07 10:50:14;;;;;;;10.10;5.23;;;25.00;99.90;;;;;;5024492;28;20053;-56
2023/09/07 10:52:41;;;;;;;10.23;5.80;;;25.00;99.90;;;;;;5029194;28;20037;-54
2023/09/07 10:55:08;;;;;;;14.50;5.60;;;25.00;99.90;;;;;;5025509;28;20088;-56
2023/09/07 10:57:41;;;;;;;9.57;5.68;;;25.10;99.90;;;;;;5030363;28;20367;-55
2023/09/07 11:00:10;;;;;;;9.40;5.10;;;25.00;99.90;;;;;;5027841;28;20061;-55
2023/09/07 11:02:37;;;;;;;8.23;4.97;;;25.00;99.90;;;;;;5029223;28;20069;-54
2023/09/07 11:05:03;;;;;;;7.95;5.72;;;25.10;99.90;;;;;;5031852;28;20519;-55
2023/09/07 11:07:29;;;;;;;14.32;5.60;;;;;;;;;;5029747;28;20037;-54
2023/09/07 11:09:54;;;;;;;6.63;5.38;;;25.20;99.90;;;;;;5030889;28;20037;-55
2023/09/07 11:12:21;;;;;;;9.07;5.80;;;25.30;99.90;;;;;;5030354;28;20117;-56
2023/09/07 11:14:50;;;;;;;8.45;5.05;;;25.30;99.90;;;;;;5033565;28;20351;-55
2023/09/07 11:17:16;;;;;;;8.85;5.82;;;25.30;99.90;;;;;;5034672;28;20065;-55
2023/09/07 11:19:42;;;;;;;8.60;5.15;;;25.40;99.90;;;;;;5036486;28;20050;-55
2023/09/07 11:22:11;;;;;;;7.88;5.25;;;25.50;99.90;;;;;;5054596;28;20550;-55
2023/09/07 11:24:36;;;;;;;8.48;5.55;;;25.50;99.90;;;;;;5029857;28;20044;-54
2023/09/07 11:27:02;;;;;;;9.20;5.10;;;25.40;99.90;;;;;;5031962;28;20041;-56
2023/09/07 11:29:32;;;;;;;10.75;5.57;;;25.50;99.90;;;;;;5029794;28;20064;-56
2023/09/07 11:32:10;;;;;;;8.15;5.95;;;25.70;99.90;;;;;;5032001;28;20412;-55
2023/09/07 11:34:48;;;;;;;12.70;5.65;;;25.70;99.90;;;;;;5025462;28;20067;-56
2023/09/07 11:37:13;;;;;;;7.53;5.28;;;25.80;99.90;;;;;;5028376;28;20116;-55
2023/09/07 11:39:39;;;;;;;12.63;5.28;;;25.80;99.90;;;;;;5027791;28;20179;-55
2023/09/07 11:42:05;;;;;;;9.50;5.40;;;25.90;99.90;;;;;;5028336;28;20033;-56
2023/09/07 11:44:32;;;;;;;8.98;5.35;;;;;;;;;;5027978;28;20408;-55
2023/09/07 11:46:57;;;;;;;6.50;5.07;;;25.50;99.90;;;;;;5031039;28;20083;-56
2023/09/07 11:49:24;;;;;;;7.57;5.47;;;26.50;99.90;;;;;;5033293;28;20402;-56
2023/09/07 11:51:50;;;;;;;8.35;5.43;;;25.90;99.90;;;;;;5031128;28;20364;-55
2023/09/07 11:54:15;;;;;;;9.07;4.85;;;25.90;99.90;;;;;;5027437;28;20131;-56
2023/09/07 11:56:42;;;;;;;10.07;5.18;;;26.00;99.90;;;;;;5022822;28;20041;-55
2023/09/07 11:59:10;;;;;;;8.02;5.40;;;;;;;;;;5027970;28;20080;-56
2023/09/07 12:01:35;;;;;;;7.35;5.15;;;25.90;99.90;;;;;;5020910;28;20052;-54
2023/09/07 12:04:04;;;;;;;7.78;4.70;;;;;;;;;;5026933;28;20045;-55
2023/09/07 12:06:31;;;;;;;9.57;5.60;;;;;;;;;;5025429;28;20173;-56
2023/09/07 12:09:02;;;;;;;11.55;5.38;;;;;;;;;;5023027;28;20045;-56
2023/09/07 12:11:30;;;;;;;9.55;5.15;;;;;;;;;;5025275;28;20137;-56
2023/09/07 12:13:56;;;;;;;9.20;5.15;;;25.90;99.90;;;;;;5029241;28;20029;-54
2023/09/07 12:16:22;;;;;;;7.75;4.90;;;26.10;99.90;;;;;;5031390;28;20056;-55
2023/09/07 12:18:48;;;;;;;7.00;5.03;;;;;;;;;;5026659;28;20107;-56
2023/09/07 12:21:13;;;;;;;7.30;4.78;;;26.50;99.90;;;;;;5033914;28;20461;-55
2023/09/07 12:23:39;;;;;;;9.35;4.78;;;26.30;99.90;;;;;;5023155;28;20059;-55
2023/09/07 12:26:06;;;;;;;10.23;5.35;;;;;;;;;;5028462;28;20526;-56
2023/09/07 12:28:32;;;;;;;9.23;4.90;;;26.40;99.90;;;;;;5027871;28;20176;-55
2023/09/07 12:30:59;;;;;;;7.50;4.70;;;;;;;;;;5032279;28;20065;-55
2023/09/07 12:33:25;;;;;;;9.68;4.65;;;26.30;99.90;;;;;;5030055;28;20025;-56
2023/09/07 12:35:51;;;;;;;7.82;4.45;;;26.50;99.90;;;;;;5031410;28;20083;-55
2023/09/07 12:38:22;;;;;;;7.93;4.75;;;26.60;99.90;;;;;;5032743;28;20032;-55
2023/09/07 12:40:47;;;;;;;8.98;4.40;;;26.50;99.90;;;;;;5028075;28;20096;-54